createdAt,value
2023-02-16T00:00:22.672Z,11.10
2023-02-16T00:02:49.558Z,11.10
2023-02-16T00:05:32.384Z,11.10
2023-02-16T00:07:59.679Z,11.10
2023-02-16T00:10:34.832Z,11.10
2023-02-16T00:13:20.563Z,11.10
2023-02-16T00:15:47.492Z,11.10
2023-02-16T00:18:19.141Z,11.10
2023-02-16T00:20:46.606Z,11.10
2023-02-16T00:23:13.497Z,11.10
2023-02-16T00:25:40.407Z,11.10
2023-02-16T00:28:18.419Z,11.10
2023-02-16T00:30:45.735Z,11.10
2023-02-16T00:33:16.826Z,11.10
2023-02-16T00:35:44.738Z,11.00
2023-02-16T00:38:12.235Z,11.00
2023-02-16T00:40:39.307Z,11.00
2023-02-16T00:43:06.266Z,11.00
2023-02-16T00:45:35.720Z,11.00
2023-02-16T00:48:02.601Z,11.00
2023-02-16T00:50:31.499Z,10.90
2023-02-16T00:53:02.529Z,10.90
2023-02-16T00:55:33.975Z,10.80
2023-02-16T00:58:26.795Z,10.80
2023-02-16T01:01:00.875Z,10.80
2023-02-16T01:03:28.818Z,10.80
2023-02-16T01:06:14.569Z,10.70
2023-02-16T01:09:00.357Z,10.70
2023-02-16T01:11:27.207Z,10.70
2023-02-16T01:13:54.662Z,10.60
2023-02-16T01:16:22.689Z,10.60
2023-02-16T01:18:49.712Z,10.50
2023-02-16T01:21:16.632Z,10.50
2023-02-16T01:23:43.539Z,10.50
2023-02-16T01:26:17.754Z,10.40
2023-02-16T01:28:44.641Z,10.30
2023-02-16T01:31:12.461Z,10.30
2023-02-16T01:33:39.772Z,10.30
2023-02-16T01:36:06.848Z,10.30
2023-02-16T01:38:33.707Z,10.20
2023-02-16T01:41:22.726Z,10.20
2023-02-16T01:43:53.186Z,10.10
2023-02-16T01:46:33.535Z,10.20
2023-02-16T01:49:00.410Z,10.10
2023-02-16T01:51:29.722Z,10.10
2023-02-16T01:54:16.171Z,10.10
2023-02-16T01:56:47.538Z,10.10
2023-02-16T01:59:29.263Z,10.00
2023-02-16T02:01:58.074Z,10.10
2023-02-16T02:04:48.363Z,10.10
2023-02-16T02:07:19.469Z,10.10
2023-02-16T02:09:52.703Z,10.10
2023-02-16T02:12:55.777Z,10.10
2023-02-16T02:15:25.410Z,10.10
2023-02-16T02:17:52.285Z,10.10
2023-02-16T02:20:22.086Z,10.10
2023-02-16T02:23:15.517Z,10.10
2023-02-16T02:26:18.717Z,10.10
2023-02-16T02:29:23.262Z,10.10
2023-02-16T02:32:08.186Z,10.10
2023-02-16T02:35:00.248Z,10.20
2023-02-16T02:37:48.787Z,10.20
2023-02-16T02:41:00.646Z,10.20
2023-02-16T02:43:39.216Z,10.20
2023-02-16T02:46:16.252Z,10.30
2023-02-16T02:48:43.090Z,10.20
2023-02-16T02:51:28.608Z,10.30
2023-02-16T02:54:40.511Z,10.20
2023-02-16T02:57:30.032Z,10.30
2023-02-16T03:00:25.538Z,10.20
2023-02-16T03:02:54.293Z,10.20
2023-02-16T03:05:21.246Z,10.20
2023-02-16T03:07:49.093Z,10.20
2023-02-16T03:10:45.174Z,10.20
2023-02-16T03:13:33.816Z,10.20
2023-02-16T03:16:03.852Z,10.20
2023-02-16T03:18:49.167Z,10.20
2023-02-16T03:21:34.191Z,10.10
2023-02-16T03:24:20.312Z,10.20
2023-02-16T03:27:08.980Z,10.10
2023-02-16T03:29:36.100Z,10.10
2023-02-16T03:32:03.098Z,10.10
2023-02-16T03:34:29.965Z,10.10
2023-02-16T03:36:59.373Z,10.10
2023-02-16T03:39:27.165Z,10.10
2023-02-16T03:41:54.949Z,10.00
2023-02-16T03:44:21.972Z,10.00
2023-02-16T03:46:51.953Z,10.00
2023-02-16T03:49:19.132Z,10.00
2023-02-16T03:51:46.026Z,10.00
2023-02-16T03:54:13.183Z,10.00
2023-02-16T03:56:40.080Z,10.00
2023-02-16T03:59:06.901Z,9.90
2023-02-16T04:01:33.790Z,9.90
2023-02-16T04:04:00.696Z,9.90
2023-02-16T04:06:27.674Z,9.90
2023-02-16T04:08:54.783Z,9.90
2023-02-16T04:11:40.009Z,9.80
2023-02-16T04:14:06.905Z,9.80
2023-02-16T04:16:33.848Z,9.80
2023-02-16T04:19:03.769Z,9.80
2023-02-16T04:21:30.567Z,9.80
2023-02-16T04:23:57.449Z,9.80
2023-02-16T04:26:24.312Z,9.80
2023-02-16T04:28:51.182Z,9.80
2023-02-16T04:31:18.083Z,9.80
2023-02-16T04:33:44.932Z,9.80
2023-02-16T04:36:11.779Z,9.80
2023-02-16T04:38:38.595Z,9.70
2023-02-16T04:41:05.847Z,9.80
2023-02-16T04:43:33.535Z,9.80
2023-02-16T04:46:00.824Z,9.80
2023-02-16T04:48:27.878Z,9.80
2023-02-16T04:50:54.695Z,9.80
2023-02-16T04:53:21.576Z,9.80
2023-02-16T04:55:49.141Z,9.80
2023-02-16T04:58:16.447Z,9.70
2023-02-16T05:00:43.254Z,9.70
2023-02-16T05:03:10.033Z,9.70
2023-02-16T05:05:36.901Z,9.70
2023-02-16T05:08:03.802Z,9.70
2023-02-16T05:10:30.803Z,9.70
2023-02-16T05:13:15.865Z,9.70
2023-02-16T05:15:42.732Z,9.70
2023-02-16T05:18:09.621Z,9.70
2023-02-16T05:20:54.738Z,9.70
2023-02-16T05:23:21.689Z,9.70
2023-02-16T05:25:48.541Z,9.80
2023-02-16T05:28:15.365Z,9.80
2023-02-16T05:30:42.197Z,9.80
2023-02-16T05:33:09.286Z,9.80
2023-02-16T05:35:36.260Z,9.80
2023-02-16T05:38:03.424Z,9.80
2023-02-16T05:40:30.245Z,9.80
2023-02-16T05:42:57.132Z,9.80
2023-02-16T05:45:23.936Z,9.80
2023-02-16T05:47:50.942Z,9.80
2023-02-16T05:50:18.030Z,9.80
2023-02-16T05:52:44.856Z,9.80
2023-02-16T05:55:11.720Z,9.80
2023-02-16T05:57:38.586Z,9.80
2023-02-16T06:00:06.142Z,9.80
2023-02-16T06:02:33.224Z,9.80
2023-02-16T06:05:00.424Z,9.80
2023-02-16T06:07:27.424Z,9.80
2023-02-16T06:09:54.345Z,9.80
2023-02-16T06:12:21.405Z,9.80
2023-02-16T06:14:48.348Z,9.80
2023-02-16T06:17:15.396Z,9.80
2023-02-16T06:19:42.185Z,9.80
2023-02-16T06:22:09.131Z,9.80
2023-02-16T06:24:37.352Z,9.90
2023-02-16T06:27:04.350Z,9.80
2023-02-16T06:29:32.136Z,9.80
2023-02-16T06:31:59.289Z,9.80
2023-02-16T06:34:26.324Z,9.80
2023-02-16T06:36:53.127Z,9.80
2023-02-16T06:39:20.098Z,9.80
2023-02-16T06:41:46.952Z,9.90
2023-02-16T06:44:15.012Z,9.90
2023-02-16T06:46:46.027Z,9.80
2023-02-16T06:49:14.247Z,9.90
2023-02-16T06:51:41.150Z,9.80
2023-02-16T06:54:08.065Z,9.90
2023-02-16T06:56:36.786Z,9.90
2023-02-16T06:59:04.727Z,9.80
2023-02-16T07:01:31.892Z,9.80
2023-02-16T07:03:58.880Z,9.80
2023-02-16T07:06:26.912Z,9.90
2023-02-16T07:08:53.877Z,9.90
2023-02-16T07:11:20.939Z,9.90
2023-02-16T07:13:48.032Z,9.90
2023-02-16T07:16:15.715Z,9.90
2023-02-16T07:18:42.850Z,10.00
2023-02-16T07:21:09.741Z,9.90
2023-02-16T07:23:36.618Z,9.90
2023-02-16T07:26:03.951Z,9.90
2023-02-16T07:28:30.903Z,10.00
2023-02-16T07:30:58.621Z,10.00
2023-02-16T07:33:25.591Z,10.00
2023-02-16T07:35:52.678Z,10.00
2023-02-16T07:38:19.572Z,10.00
2023-02-16T07:40:46.459Z,10.10
2023-02-16T07:43:13.362Z,10.10
2023-02-16T07:45:40.337Z,10.00
2023-02-16T07:48:07.395Z,10.00
2023-02-16T07:50:34.253Z,10.10
2023-02-16T07:53:04.897Z,10.10
2023-02-16T07:55:31.868Z,10.10
2023-02-16T07:57:58.966Z,10.10
2023-02-16T08:00:26.888Z,10.10
2023-02-16T08:02:53.907Z,10.20
2023-02-16T08:05:20.871Z,10.20
2023-02-16T08:07:47.960Z,10.20
2023-02-16T08:10:15.042Z,10.20
2023-02-16T08:12:42.115Z,10.30
2023-02-16T08:15:10.006Z,10.30
2023-02-16T08:17:36.963Z,10.30
2023-02-16T08:20:04.319Z,10.40
2023-02-16T08:22:31.162Z,10.40
2023-02-16T08:24:59.681Z,10.40
2023-02-16T08:27:26.949Z,10.50
2023-02-16T08:29:54.346Z,10.60
2023-02-16T08:32:21.419Z,10.60
2023-02-16T08:34:48.385Z,10.60
2023-02-16T08:37:15.211Z,10.70
2023-02-16T08:39:42.292Z,10.70
2023-02-16T08:42:11.628Z,10.70
2023-02-16T08:44:38.899Z,10.80
2023-02-16T08:47:05.857Z,10.80
2023-02-16T08:49:33.084Z,10.80
2023-02-16T08:52:01.570Z,10.80
2023-02-16T08:54:30.870Z,10.90
2023-02-16T08:56:59.798Z,10.80
2023-02-16T09:02:12.439Z,10.90
2023-02-16T09:04:39.308Z,10.90
2023-02-16T09:07:06.220Z,10.80
2023-02-16T09:09:33.144Z,10.90
2023-02-16T09:12:00.068Z,10.90
2023-02-16T09:14:27.993Z,10.90
2023-02-16T09:16:55.009Z,11.00
2023-02-16T09:19:21.887Z,11.00
2023-02-16T09:21:50.983Z,11.00
2023-02-16T09:24:17.972Z,11.10
2023-02-16T09:26:44.928Z,11.10
2023-02-16T09:29:12.658Z,11.10
2023-02-16T09:31:40.252Z,11.10
2023-02-16T09:34:27.857Z,11.20
2023-02-16T09:36:54.916Z,11.20
2023-02-16T09:39:21.827Z,11.30
2023-02-16T09:41:54.588Z,11.40
2023-02-16T09:44:23.809Z,11.40
2023-02-16T09:46:50.620Z,11.40
2023-02-16T09:49:38.087Z,11.40
2023-02-16T09:52:21.328Z,11.40
2023-02-16T09:54:55.984Z,11.40
2023-02-16T09:57:55.644Z,11.40
2023-02-16T10:00:34.537Z,11.50
2023-02-16T10:03:42.256Z,11.50
2023-02-16T10:06:54.825Z,11.60
2023-02-16T10:09:24.222Z,11.60
2023-02-16T10:12:03.948Z,11.70
2023-02-16T10:14:47.854Z,11.80
2023-02-16T10:17:24.353Z,11.80
2023-02-16T10:20:01.497Z,11.80
2023-02-16T10:22:38.635Z,11.90
2023-02-16T10:25:15.738Z,11.90
2023-02-16T10:27:44.566Z,11.90
2023-02-16T10:30:16.723Z,11.90
2023-02-16T10:32:57.876Z,12.00
2023-02-16T10:35:29.942Z,12.10
2023-02-16T10:38:12.930Z,12.10
2023-02-16T10:40:52.979Z,12.20
2023-02-16T10:43:32.953Z,12.20
2023-02-16T10:46:00.079Z,12.20
2023-02-16T10:48:27.325Z,12.20
2023-02-16T10:51:01.456Z,12.20
2023-02-16T10:53:44.230Z,12.30
2023-02-16T10:56:35.993Z,12.30
2023-02-16T10:59:08.407Z,12.30
2023-02-16T11:01:40.488Z,12.30
2023-02-16T11:04:08.063Z,12.40
2023-02-16T11:06:36.508Z,12.40
2023-02-16T11:09:04.420Z,12.40
2023-02-16T11:11:37.338Z,12.40
2023-02-16T11:14:08.676Z,12.30
2023-02-16T11:16:36.010Z,12.30
2023-02-16T11:19:07.766Z,12.30
2023-02-16T11:21:49.616Z,12.30
2023-02-16T11:24:37.464Z,12.30
2023-02-16T11:27:13.764Z,12.30
2023-02-16T11:29:40.964Z,12.30
2023-02-16T11:32:08.874Z,12.30
2023-02-16T11:34:43.285Z,12.30
2023-02-16T11:37:31.137Z,12.30
2023-02-16T11:40:06.790Z,12.40
2023-02-16T11:42:35.370Z,12.40
2023-02-16T11:45:03.018Z,12.40
2023-02-16T11:47:40.499Z,12.40
2023-02-16T11:50:23.381Z,12.40
2023-02-16T11:52:55.020Z,12.40
2023-02-16T11:55:27.619Z,12.40
2023-02-16T11:57:56.665Z,12.40
2023-02-16T12:00:24.317Z,12.50
2023-02-16T12:03:19.125Z,12.50
2023-02-16T12:06:08.173Z,12.60
2023-02-16T12:08:43.526Z,12.60
2023-02-16T12:11:32.109Z,12.70
2023-02-16T12:14:08.368Z,12.70
2023-02-16T12:16:51.064Z,12.70
2023-02-16T12:19:53.563Z,12.80
2023-02-16T12:22:41.506Z,12.80
2023-02-16T12:25:39.219Z,12.80
2023-02-16T12:28:10.004Z,12.80
2023-02-16T12:30:40.598Z,12.80
2023-02-16T12:33:32.342Z,12.80
2023-02-16T12:36:21.801Z,12.90
2023-02-16T12:39:03.571Z,12.90
2023-02-16T12:42:19.391Z,12.80
2023-02-16T12:44:53.506Z,12.90
2023-02-16T12:47:26.204Z,12.90
2023-02-16T12:50:01.620Z,12.90
2023-02-16T12:52:41.569Z,12.90
2023-02-16T12:55:20.273Z,13.00
2023-02-16T12:57:56.423Z,13.00
2023-02-16T13:00:36.296Z,13.00
2023-02-16T13:03:25.362Z,13.10
2023-02-16T13:06:09.195Z,13.10
2023-02-16T13:08:39.204Z,13.10
2023-02-16T13:11:20.924Z,13.10
2023-02-16T13:13:48.560Z,13.20
2023-02-16T13:16:43.002Z,13.20
2023-02-16T13:19:13.368Z,13.20
2023-02-16T13:21:52.258Z,13.30
2023-02-16T13:24:40.665Z,13.30
2023-02-16T13:27:42.885Z,13.30
2023-02-16T13:30:45.887Z,13.30
2023-02-16T13:33:37.079Z,13.30
2023-02-16T13:36:28.041Z,13.30
2023-02-16T13:39:31.839Z,13.30
2023-02-16T13:42:32.773Z,13.20
2023-02-16T13:45:01.012Z,13.20
2023-02-16T13:47:30.279Z,13.20
2023-02-16T13:50:05.266Z,13.20
2023-02-16T13:52:39.770Z,13.20
2023-02-16T13:55:27.981Z,13.10
2023-02-16T13:58:13.513Z,13.10
2023-02-16T14:00:45.349Z,13.10
2023-02-16T14:03:20.192Z,13.10
2023-02-16T14:05:53.861Z,13.00
2023-02-16T14:08:25.638Z,13.00
2023-02-16T14:10:58.955Z,13.10
2023-02-16T14:13:38.066Z,13.10
2023-02-16T14:16:29.576Z,13.10
2023-02-16T14:19:01.814Z,13.10
2023-02-16T14:21:37.451Z,13.10
2023-02-16T14:24:05.133Z,13.20
2023-02-16T14:26:32.190Z,13.20
2023-02-16T14:29:17.338Z,13.20
2023-02-16T14:31:47.640Z,13.20
2023-02-16T14:34:36.576Z,13.30
2023-02-16T14:37:16.251Z,13.30
2023-02-16T14:40:06.910Z,13.30
2023-02-16T14:42:34.764Z,13.30
2023-02-16T14:45:34.528Z,13.30
2023-02-16T14:48:23.285Z,13.30
2023-02-16T14:50:54.788Z,13.30
2023-02-16T14:53:47.547Z,13.30
2023-02-16T14:56:42.048Z,13.30
2023-02-16T14:59:14.895Z,13.30
2023-02-16T15:01:42.894Z,13.30
2023-02-16T15:04:11.378Z,13.40
2023-02-16T15:06:42.705Z,13.40
2023-02-16T15:09:24.058Z,13.50
2023-02-16T15:12:17.374Z,13.50
2023-02-16T15:14:51.937Z,13.50
2023-02-16T15:17:37.340Z,13.50
2023-02-16T15:20:27.701Z,13.60
2023-02-16T15:23:00.116Z,13.60
2023-02-16T15:25:30.896Z,13.60
2023-02-16T15:27:59.207Z,13.60
2023-02-16T15:30:36.265Z,13.70
2023-02-16T15:33:27.538Z,13.70
2023-02-16T15:35:59.777Z,13.70
2023-02-16T15:38:27.641Z,13.80
2023-02-16T15:40:55.658Z,13.80
2023-02-16T15:43:46.732Z,13.80
2023-02-16T15:46:43.596Z,13.80
2023-02-16T15:49:27.392Z,13.80
2023-02-16T15:51:55.728Z,13.90
2023-02-16T15:54:35.647Z,13.80
2023-02-16T15:57:16.086Z,13.80
2023-02-16T15:59:50.218Z,13.90
2023-02-16T16:02:21.169Z,13.90
2023-02-16T16:04:54.981Z,13.90
2023-02-16T16:07:36.480Z,13.90
2023-02-16T16:10:09.553Z,13.90
2023-02-16T16:12:36.570Z,13.90
2023-02-16T16:15:04.577Z,13.90
2023-02-16T16:17:33.252Z,13.80
2023-02-16T16:20:31.143Z,13.80
2023-02-16T16:23:05.826Z,13.80
2023-02-16T16:25:35.779Z,13.70
2023-02-16T16:28:04.309Z,13.70
2023-02-16T16:30:35.712Z,13.70
2023-02-16T16:33:06.400Z,13.60
2023-02-16T16:35:37.990Z,13.60
2023-02-16T16:38:05.970Z,13.60
2023-02-16T16:40:36.946Z,13.50
2023-02-16T16:43:04.380Z,13.50
2023-02-16T16:45:48.576Z,13.50
2023-02-16T16:48:15.473Z,13.50
2023-02-16T16:50:42.755Z,13.40
2023-02-16T16:53:28.190Z,13.40
2023-02-16T16:55:55.160Z,13.30
2023-02-16T16:58:21.968Z,13.30
2023-02-16T17:00:48.938Z,13.30
2023-02-16T17:03:16.980Z,13.30
2023-02-16T17:05:44.532Z,13.30
2023-02-16T17:08:11.643Z,13.30
2023-02-16T17:10:40.205Z,13.30
2023-02-16T17:13:07.187Z,13.30
2023-02-16T17:15:52.692Z,13.30
2023-02-16T17:18:20.140Z,13.30
2023-02-16T17:20:47.590Z,13.20
2023-02-16T17:23:15.645Z,13.20
2023-02-16T17:25:42.723Z,13.20
2023-02-16T17:28:09.915Z,13.20
2023-02-16T17:30:36.865Z,13.10
2023-02-16T17:33:04.043Z,13.10
2023-02-16T17:35:31.233Z,13.10
2023-02-16T17:37:58.141Z,13.00
2023-02-16T17:40:25.283Z,13.00
2023-02-16T17:42:52.624Z,12.90
2023-02-16T17:45:21.011Z,12.90
2023-02-16T17:47:49.796Z,12.90
2023-02-16T17:50:16.962Z,12.90
2023-02-16T17:52:44.190Z,12.90
2023-02-16T17:55:11.672Z,12.80
2023-02-16T17:57:38.649Z,12.80
2023-02-16T18:00:06.593Z,12.80
2023-02-16T18:02:33.431Z,12.80
2023-02-16T18:05:00.475Z,12.80
2023-02-16T18:07:27.295Z,12.80
2023-02-16T18:09:54.749Z,12.80
2023-02-16T18:12:21.780Z,12.70
2023-02-16T18:14:48.685Z,12.80
2023-02-16T18:17:16.168Z,12.70
2023-02-16T18:19:43.304Z,12.80
2023-02-16T18:22:10.300Z,12.80
2023-02-16T18:24:37.197Z,12.80
2023-02-16T18:27:04.244Z,12.80
2023-02-16T18:29:31.432Z,12.80
2023-02-16T18:31:58.626Z,12.80
2023-02-16T18:34:26.374Z,12.80
2023-02-16T18:36:53.354Z,12.80
2023-02-16T18:39:20.220Z,12.80
2023-02-16T18:41:47.274Z,12.80
2023-02-16T18:44:14.328Z,12.80
2023-02-16T18:46:41.213Z,12.80
2023-02-16T18:49:08.215Z,12.80
2023-02-16T18:51:35.494Z,12.70
2023-02-16T18:54:02.645Z,12.70
2023-02-16T18:56:29.647Z,12.60
2023-02-16T18:58:56.859Z,12.60
2023-02-16T19:01:31.631Z,12.50
2023-02-16T19:03:59.054Z,12.50
2023-02-16T19:06:26.167Z,12.50
2023-02-16T19:08:53.428Z,12.40
2023-02-16T19:11:20.546Z,12.40
2023-02-16T19:13:48.000Z,12.40
2023-02-16T19:16:15.642Z,12.40
2023-02-16T19:18:42.542Z,12.30
2023-02-16T19:21:10.330Z,12.30
2023-02-16T19:23:37.424Z,12.40
2023-02-16T19:26:07.086Z,12.40
2023-02-16T19:28:35.192Z,12.40
2023-02-16T19:31:03.538Z,12.40
2023-02-16T19:33:30.941Z,12.40
2023-02-16T19:36:01.765Z,12.40
2023-02-16T19:38:28.958Z,12.40
2023-02-16T19:40:55.984Z,12.40
2023-02-16T19:43:23.051Z,12.40
2023-02-16T19:45:49.964Z,12.40
2023-02-16T19:48:17.075Z,12.40
2023-02-16T19:50:44.201Z,12.40
2023-02-16T19:53:11.044Z,12.40
2023-02-16T19:55:42.112Z,12.40
2023-02-16T19:58:09.021Z,12.30
2023-02-16T20:00:36.828Z,12.30
2023-02-16T20:03:04.619Z,12.20
2023-02-16T20:05:31.615Z,12.20
2023-02-16T20:07:58.484Z,12.10
2023-02-16T20:10:25.406Z,12.10
2023-02-16T20:12:52.378Z,12.10
2023-02-16T20:15:20.355Z,12.00
2023-02-16T20:17:47.242Z,12.00
2023-02-16T20:20:14.238Z,12.00
2023-02-16T20:22:41.101Z,12.00
2023-02-16T20:25:08.536Z,11.90
2023-02-16T20:27:35.699Z,11.90
2023-02-16T20:30:06.132Z,11.80
2023-02-16T20:32:33.225Z,11.80
2023-02-16T20:35:03.926Z,11.80
2023-02-16T20:37:30.861Z,11.80
2023-02-16T20:39:57.901Z,11.80
2023-02-16T20:42:24.836Z,11.80
2023-02-16T20:44:51.773Z,11.70
2023-02-16T20:47:21.754Z,11.70
2023-02-16T20:49:48.675Z,11.70
2023-02-16T20:52:15.538Z,11.70
2023-02-16T20:54:42.443Z,11.60
2023-02-16T20:57:21.363Z,11.60
2023-02-16T20:59:52.798Z,11.60
2023-02-16T21:02:19.725Z,11.60
2023-02-16T21:04:46.704Z,11.60
2023-02-16T21:07:13.553Z,11.60
2023-02-16T21:09:40.516Z,11.60
2023-02-16T21:12:10.550Z,11.60
2023-02-16T21:14:38.290Z,11.60
2023-02-16T21:17:05.151Z,11.70
2023-02-16T21:19:32.093Z,11.70
2023-02-16T21:21:59.242Z,11.60
2023-02-16T21:24:26.132Z,11.70
2023-02-16T21:26:52.972Z,11.70
2023-02-16T21:29:20.930Z,11.60
2023-02-16T21:31:47.927Z,11.70
2023-02-16T21:34:14.944Z,11.70
2023-02-16T21:36:41.921Z,11.60
2023-02-16T21:39:08.781Z,11.60
2023-02-16T21:41:35.758Z,11.60
2023-02-16T21:44:07.721Z,11.60
2023-02-16T21:46:40.059Z,11.50
2023-02-16T21:49:08.074Z,11.50
2023-02-16T21:51:36.761Z,11.50
2023-02-16T21:54:06.940Z,11.50
2023-02-16T21:56:40.482Z,11.50
2023-02-16T21:59:12.241Z,11.50
2023-02-16T22:01:42.730Z,11.50
2023-02-16T22:04:14.170Z,11.50
2023-02-16T22:06:42.865Z,11.60
2023-02-16T22:09:14.424Z,11.50
2023-02-16T22:11:41.568Z,11.50
2023-02-16T22:14:08.550Z,11.60
2023-02-16T22:16:36.152Z,11.60
2023-02-16T22:19:08.889Z,11.60
2023-02-16T22:21:37.447Z,11.60
2023-02-16T22:24:04.900Z,11.60
2023-02-16T22:26:32.793Z,11.60
2023-02-16T22:28:59.783Z,11.60
2023-02-16T22:31:27.261Z,11.60
2023-02-16T22:34:01.429Z,11.60
2023-02-16T22:36:28.613Z,11.60
2023-02-16T22:38:55.611Z,11.60
2023-02-16T22:41:22.701Z,11.60
2023-02-16T22:43:55.383Z,11.60
2023-02-16T22:46:22.797Z,11.60
2023-02-16T22:48:49.661Z,11.60
2023-02-16T22:51:16.949Z,11.60
2023-02-16T22:53:43.897Z,11.70
2023-02-16T22:56:13.352Z,11.70
2023-02-16T22:58:40.432Z,11.70
2023-02-16T23:01:20.494Z,11.70
2023-02-16T23:03:53.448Z,11.70
2023-02-16T23:06:21.811Z,11.70
2023-02-16T23:08:52.706Z,11.80
2023-02-16T23:11:19.585Z,11.80
2023-02-16T23:13:46.386Z,11.80
2023-02-16T23:16:16.106Z,11.80
2023-02-16T23:18:43.188Z,11.80
2023-02-16T23:21:19.994Z,11.80
2023-02-16T23:23:47.740Z,11.80
2023-02-16T23:26:14.676Z,11.80
2023-02-16T23:28:41.761Z,11.80
2023-02-16T23:31:08.875Z,11.80
2023-02-16T23:33:35.823Z,11.90
2023-02-16T23:36:02.767Z,11.90
2023-02-16T23:38:29.766Z,11.90
2023-02-16T23:41:04.439Z,11.80
2023-02-16T23:43:31.493Z,11.90
2023-02-16T23:46:00.134Z,11.90
2023-02-16T23:48:27.023Z,11.90
2023-02-16T23:50:54.028Z,11.90
2023-02-16T23:53:21.620Z,11.90
2023-02-16T23:56:06.454Z,11.90
2023-02-16T23:58:36.394Z,11.90
